Main page
METAR-TAF:

METAR-TAF

Airports :

Kuwait International Airport

Kuwait City, Kuwait

latitude: 29-13N, longitude: 047-59E, elevation: 55 m

Current weather observation

The report was made 1 hour and 1 minutes ago, at 06:00 UTC
Wind 18 kt from the North
Temperature 38°C
Humidity 17%
Pressure 1003 hPa
Visibility: 8000 m
Clear sky
(light) , widespread dust

METAR: OKBK 190600Z 35018KT 8000 -BLDU SKC 38/09 Q1003 NOSIG

Time: 10:01 (07:01 UTC)

Forecast

The report was made 2 hours and 16 minutes ago, at 04:45 UTC
Forecast valid from 19 at 06 UTC to 20 at 12 UTC
Wind 15 kt from the North with gusts up to 25 kt
Visibility: 7000 m
Clear sky
Temporary
from 19 at 06 UTC to 19 at 15 UTC
Visibility: 3000 m
Blowing dust

TAF: OKBK 190445Z 1906/2012 35015G25KT 7000 SKC TEMPO 1906/1915 3000 BLDU

Weather observations and forecasts of more than 4000 airports (METAR and TAF reports).

The available stations are represented by yellow and red dots on the map.

Hover mouse over dot to see the name of the station.

Then click to see weather observations and forecasts.

To change the map : click on the green buttons with a black cross to zoom in, on the green button with a dash to zoom out, or on the green arrows for adjacent maps.


METAR-TAF: